EYK weather

Public forecast

Using degrees Celsius for public forecast. Weather courtesy of forecast.io.

Closest aviation weather report (METAR) to Beloyarskiy Airport

Report is more than 6 hours old.

Closest report is Nadym Airport, 188.3 nm (348.8 km) NE. Retrieved 2013/07/19 07:30 UTC (7 years ago):

USMM 190730Z 04003MPS 9999 FEW003 30/14 Q1010 NOSIG RMK QBB100 QFE756 3209//70

Closest aviation forecast (TAF) to Beloyarskiy Airport

Forecast is more than 12 hours old.

Closest forecast is Kogalym International Airport, 231.9 nm (429.5 km) ESE. Retrieved 2013/03/01 09:12 UTC (7 years ago):

TAF TAF USRK 010735Z 0109/0209 20006G11MPS 9999 BKN066 TEMPO 0112/0118 BKN007